sensor_id;sensor_type;location;lat;lon;timestamp;temperature;humidity
46784;DHT22;32544;52.832;13.816;2022-08-26T00:00:51;27.10;61.20
46784;DHT22;32544;52.832;13.816;2022-08-26T00:01:52;27.10;61.20
46784;DHT22;32544;52.832;13.816;2022-08-26T00:02:52;27.10;61.20
46784;DHT22;32544;52.832;13.816;2022-08-26T00:03:53;27.10;61.20
46784;DHT22;32544;52.832;13.816;2022-08-26T00:04:54;27.10;61.20
46784;DHT22;32544;52.832;13.816;2022-08-26T00:05:55;27.10;61.20
46784;DHT22;32544;52.832;13.816;2022-08-26T00:06:55;27.10;62.00
46784;DHT22;32544;52.832;13.816;2022-08-26T00:07:56;27.10;61.20
46784;DHT22;32544;52.832;13.816;2022-08-26T00:08:57;27.10;61.30
46784;DHT22;32544;52.832;13.816;2022-08-26T00:09:57;27.10;61.30
46784;DHT22;32544;52.832;13.816;2022-08-26T00:10:58;27.10;61.20
46784;DHT22;32544;52.832;13.816;2022-08-26T00:11:58;27.10;61.20
46784;DHT22;32544;52.832;13.816;2022-08-26T00:12:59;27.10;61.20
46784;DHT22;32544;52.832;13.816;2022-08-26T00:14:00;27.10;61.20
46784;DHT22;32544;52.832;13.816;2022-08-26T00:15:00;27.10;61.20
46784;DHT22;32544;52.832;13.816;2022-08-26T00:16:02;27.10;61.20
46784;DHT22;32544;52.832;13.816;2022-08-26T00:17:03;27.10;61.10
46784;DHT22;32544;52.832;13.816;2022-08-26T00:18:04;27.10;61.20
46784;DHT22;32544;52.832;13.816;2022-08-26T00:19:04;27.10;61.20
46784;DHT22;32544;52.832;13.816;2022-08-26T00:20:05;27.10;61.20
46784;DHT22;32544;52.832;13.816;2022-08-26T00:21:07;27.10;61.20
46784;DHT22;32544;52.832;13.816;2022-08-26T00:22:08;27.10;61.20
46784;DHT22;32544;52.832;13.816;2022-08-26T00:23:09;27.10;61.30
46784;DHT22;32544;52.832;13.816;2022-08-26T00:24:10;27.10;61.30
46784;DHT22;32544;52.832;13.816;2022-08-26T00:25:11;27.00;61.10
46784;DHT22;32544;52.832;13.816;2022-08-26T00:26:12;27.10;61.20
46784;DHT22;32544;52.832;13.816;2022-08-26T00:27:13;27.10;61.30
46784;DHT22;32544;52.832;13.816;2022-08-26T00:28:13;27.10;61.30
46784;DHT22;32544;52.832;13.816;2022-08-26T00:29:14;27.10;61.20
46784;DHT22;32544;52.832;13.816;2022-08-26T00:30:17;27.10;61.20
46784;DHT22;32544;52.832;13.816;2022-08-26T00:31:17;27.10;61.20
46784;DHT22;32544;52.832;13.816;2022-08-26T00:32:18;27.10;61.30
46784;DHT22;32544;52.832;13.816;2022-08-26T00:33:19;27.10;61.30
46784;DHT22;32544;52.832;13.816;2022-08-26T00:34:20;27.10;61.20
46784;DHT22;32544;52.832;13.816;2022-08-26T00:35:21;27.10;61.20
46784;DHT22;32544;52.832;13.816;2022-08-26T00:36:22;27.10;61.20
46784;DHT22;32544;52.832;13.816;2022-08-26T00:37:23;27.10;61.20
46784;DHT22;32544;52.832;13.816;2022-08-26T00:38:23;27.10;61.10
46784;DHT22;32544;52.832;13.816;2022-08-26T00:39:24;27.10;61.20
46784;DHT22;32544;52.832;13.816;2022-08-26T00:40:29;27.10;61.30
46784;DHT22;32544;52.832;13.816;2022-08-26T00:41:30;27.10;61.20
46784;DHT22;32544;52.832;13.816;2022-08-26T00:42:31;27.10;61.20
46784;DHT22;32544;52.832;13.816;2022-08-26T00:43:33;27.10;61.30
46784;DHT22;32544;52.832;13.816;2022-08-26T00:44:34;27.10;61.30
46784;DHT22;32544;52.832;13.816;2022-08-26T00:45:43;27.10;61.30
46784;DHT22;32544;52.832;13.816;2022-08-26T00:46:45;27.10;61.30
46784;DHT22;32544;52.832;13.816;2022-08-26T00:47:50;27.10;61.30
46784;DHT22;32544;52.832;13.816;2022-08-26T00:48:52;27.10;61.30
46784;DHT22;32544;52.832;13.816;2022-08-26T00:49:56;27.10;61.30
46784;DHT22;32544;52.832;13.816;2022-08-26T00:51:03;27.00;61.20
46784;DHT22;32544;52.832;13.816;2022-08-26T00:52:06;27.10;61.30
46784;DHT22;32544;52.832;13.816;2022-08-26T00:53:08;27.10;61.30
46784;DHT22;32544;52.832;13.816;2022-08-26T00:54:21;27.10;61.30
46784;DHT22;32544;52.832;13.816;2022-08-26T00:55:25;27.10;61.20
46784;DHT22;32544;52.832;13.816;2022-08-26T00:56:51;27.00;61.20
46784;DHT22;32544;52.832;13.816;2022-08-26T00:57:49;27.10;61.30
46784;DHT22;32544;52.832;13.816;2022-08-26T00:58:50;27.10;61.20
46784;DHT22;32544;52.832;13.816;2022-08-26T00:59:52;27.10;61.20
46784;DHT22;32544;52.832;13.816;2022-08-26T01:00:54;27.10;61.20
46784;DHT22;32544;52.832;13.816;2022-08-26T01:01:54;27.10;61.20
46784;DHT22;32544;52.832;13.816;2022-08-26T01:02:56;27.10;61.90
46784;DHT22;32544;52.832;13.816;2022-08-26T01:03:59;27.10;61.10
46784;DHT22;32544;52.832;13.816;2022-08-26T01:05:00;27.00;61.90
46784;DHT22;32544;52.832;13.816;2022-08-26T01:06:02;27.10;61.20
46784;DHT22;32544;52.832;13.816;2022-08-26T01:07:03;27.00;61.10
46784;DHT22;32544;52.832;13.816;2022-08-26T01:08:04;27.10;61.30
46784;DHT22;32544;52.832;13.816;2022-08-26T01:09:04;27.10;61.30
46784;DHT22;32544;52.832;13.816;2022-08-26T01:10:07;27.00;61.30
46784;DHT22;32544;52.832;13.816;2022-08-26T01:11:08;27.00;61.30
46784;DHT22;32544;52.832;13.816;2022-08-26T01:12:09;27.00;61.30
46784;DHT22;32544;52.832;13.816;2022-08-26T01:13:09;27.00;61.30
46784;DHT22;32544;52.832;13.816;2022-08-26T01:14:10;27.00;61.30
46784;DHT22;32544;52.832;13.816;2022-08-26T01:15:14;27.00;61.30
46784;DHT22;32544;52.832;13.816;2022-08-26T01:16:16;27.00;61.20
46784;DHT22;32544;52.832;13.816;2022-08-26T01:17:17;27.00;61.20
46784;DHT22;32544;52.832;13.816;2022-08-26T01:18:18;27.00;61.30
46784;DHT22;32544;52.832;13.816;2022-08-26T01:19:20;27.00;61.20
46784;DHT22;32544;52.832;13.816;2022-08-26T01:23:00;27.00;61.20
46784;DHT22;32544;52.832;13.816;2022-08-26T01:24:01;27.00;61.10
46784;DHT22;32544;52.832;13.816;2022-08-26T01:25:02;27.00;61.20
46784;DHT22;32544;52.832;13.816;2022-08-26T01:26:05;27.00;61.10
46784;DHT22;32544;52.832;13.816;2022-08-26T01:27:07;27.00;61.20
46784;DHT22;32544;52.832;13.816;2022-08-26T01:28:10;27.00;61.20
46784;DHT22;32544;52.832;13.816;2022-08-26T01:29:14;27.00;61.10
46784;DHT22;32544;52.832;13.816;2022-08-26T01:30:15;27.00;61.10
46784;DHT22;32544;52.832;13.816;2022-08-26T01:31:19;27.00;61.10
46784;DHT22;32544;52.832;13.816;2022-08-26T01:32:20;27.00;61.10
46784;DHT22;32544;52.832;13.816;2022-08-26T01:33:23;27.00;61.10
46784;DHT22;32544;52.832;13.816;2022-08-26T01:34:36;27.00;61.10
46784;DHT22;32544;52.832;13.816;2022-08-26T01:35:36;27.00;61.10
46784;DHT22;32544;52.832;13.816;2022-08-26T01:36:37;27.00;61.10
46784;DHT22;32544;52.832;13.816;2022-08-26T01:37:38;27.00;61.10
46784;DHT22;32544;52.832;13.816;2022-08-26T01:38:40;27.00;61.10
46784;DHT22;32544;52.832;13.816;2022-08-26T01:39:41;27.00;61.10
46784;DHT22;32544;52.832;13.816;2022-08-26T01:40:43;27.00;61.10
46784;DHT22;32544;52.832;13.816;2022-08-26T01:41:45;27.00;61.10
46784;DHT22;32544;52.832;13.816;2022-08-26T01:42:46;27.00;61.00
46784;DHT22;32544;52.832;13.816;2022-08-26T01:43:49;27.00;61.10
46784;DHT22;32544;52.832;13.816;2022-08-26T01:44:53;27.00;61.10
46784;DHT22;32544;52.832;13.816;2022-08-26T01:45:55;27.00;61.10
46784;DHT22;32544;52.832;13.816;2022-08-26T01:46:56;27.00;61.10
46784;DHT22;32544;52.832;13.816;2022-08-26T01:47:58;27.00;61.00
46784;DHT22;32544;52.832;13.816;2022-08-26T01:49:02;27.00;61.00
46784;DHT22;32544;52.832;13.816;2022-08-26T01:50:06;27.00;61.00
46784;DHT22;32544;52.832;13.816;2022-08-26T01:51:08;27.00;61.10
46784;DHT22;32544;52.832;13.816;2022-08-26T01:52:11;27.00;61.00
46784;DHT22;32544;52.832;13.816;2022-08-26T01:53:14;27.00;61.00
46784;DHT22;32544;52.832;13.816;2022-08-26T01:54:15;27.00;61.00
46784;DHT22;32544;52.832;13.816;2022-08-26T01:55:17;27.00;61.10
46784;DHT22;32544;52.832;13.816;2022-08-26T01:56:18;27.00;61.10
46784;DHT22;32544;52.832;13.816;2022-08-26T01:57:20;27.00;61.20
46784;DHT22;32544;52.832;13.816;2022-08-26T01:58:43;27.00;61.20
46784;DHT22;32544;52.832;13.816;2022-08-26T01:59:42;27.00;61.20
46784;DHT22;32544;52.832;13.816;2022-08-26T02:00:42;27.00;61.30
46784;DHT22;32544;52.832;13.816;2022-08-26T02:01:43;27.00;61.30
46784;DHT22;32544;52.832;13.816;2022-08-26T02:02:45;27.00;61.30
46784;DHT22;32544;52.832;13.816;2022-08-26T02:03:51;27.00;61.30
46784;DHT22;32544;52.832;13.816;2022-08-26T02:04:53;27.00;61.30
46784;DHT22;32544;52.832;13.816;2022-08-26T02:05:58;27.00;61.30
46784;DHT22;32544;52.832;13.816;2022-08-26T02:07:03;27.00;61.30
46784;DHT22;32544;52.832;13.816;2022-08-26T02:08:05;27.00;61.30
46784;DHT22;32544;52.832;13.816;2022-08-26T02:09:06;26.90;61.30
46784;DHT22;32544;52.832;13.816;2022-08-26T02:10:07;26.90;62.00
46784;DHT22;32544;52.832;13.816;2022-08-26T02:11:08;27.00;61.20
46784;DHT22;32544;52.832;13.816;2022-08-26T02:12:09;27.00;61.30
46784;DHT22;32544;52.832;13.816;2022-08-26T02:13:11;26.90;61.20
46784;DHT22;32544;52.832;13.816;2022-08-26T02:14:14;27.00;61.20
46784;DHT22;32544;52.832;13.816;2022-08-26T02:15:16;27.00;61.20
46784;DHT22;32544;52.832;13.816;2022-08-26T02:16:17;27.00;61.20
46784;DHT22;32544;52.832;13.816;2022-08-26T02:17:20;27.00;61.10
46784;DHT22;32544;52.832;13.816;2022-08-26T02:18:22;27.00;61.10
46784;DHT22;32544;52.832;13.816;2022-08-26T02:19:27;27.00;61.20
46784;DHT22;32544;52.832;13.816;2022-08-26T02:20:28;27.00;61.10
46784;DHT22;32544;52.832;13.816;2022-08-26T02:21:29;27.00;61.10
46784;DHT22;32544;52.832;13.816;2022-08-26T02:22:30;27.00;61.10
46784;DHT22;32544;52.832;13.816;2022-08-26T02:23:30;27.00;61.10
46784;DHT22;32544;52.832;13.816;2022-08-26T02:24:45;27.00;61.00
46784;DHT22;32544;52.832;13.816;2022-08-26T02:25:52;27.00;61.00
46784;DHT22;32544;52.832;13.816;2022-08-26T02:26:55;27.00;61.00
46784;DHT22;32544;52.832;13.816;2022-08-26T02:27:56;27.00;61.00
46784;DHT22;32544;52.832;13.816;2022-08-26T02:28:59;27.00;61.00
46784;DHT22;32544;52.832;13.816;2022-08-26T02:30:04;27.00;61.00
46784;DHT22;32544;52.832;13.816;2022-08-26T02:31:06;27.00;61.00
46784;DHT22;32544;52.832;13.816;2022-08-26T02:32:07;27.00;61.00
46784;DHT22;32544;52.832;13.816;2022-08-26T02:33:08;27.00;61.00
46784;DHT22;32544;52.832;13.816;2022-08-26T02:34:12;26.90;60.90
46784;DHT22;32544;52.832;13.816;2022-08-26T02:35:14;27.00;61.00
46784;DHT22;32544;52.832;13.816;2022-08-26T02:36:19;27.00;61.00
46784;DHT22;32544;52.832;13.816;2022-08-26T02:37:20;27.00;61.00
46784;DHT22;32544;52.832;13.816;2022-08-26T02:38:21;27.00;61.00
46784;DHT22;32544;52.832;13.816;2022-08-26T02:39:22;27.00;61.00
46784;DHT22;32544;52.832;13.816;2022-08-26T02:40:26;27.00;61.00
46784;DHT22;32544;52.832;13.816;2022-08-26T02:41:28;27.00;61.00
46784;DHT22;32544;52.832;13.816;2022-08-26T02:42:28;27.00;60.90
46784;DHT22;32544;52.832;13.816;2022-08-26T02:43:29;27.00;60.90
46784;DHT22;32544;52.832;13.816;2022-08-26T02:44:30;27.00;60.90
46784;DHT22;32544;52.832;13.816;2022-08-26T02:45:31;27.00;60.90
46784;DHT22;32544;52.832;13.816;2022-08-26T02:46:32;27.00;60.90
46784;DHT22;32544;52.832;13.816;2022-08-26T02:47:32;27.00;60.90
46784;DHT22;32544;52.832;13.816;2022-08-26T02:48:33;27.00;60.80
46784;DHT22;32544;52.832;13.816;2022-08-26T02:49:34;27.00;60.80
46784;DHT22;32544;52.832;13.816;2022-08-26T02:50:36;27.00;60.80
46784;DHT22;32544;52.832;13.816;2022-08-26T02:51:36;27.00;60.80
46784;DHT22;32544;52.832;13.816;2022-08-26T02:52:37;27.00;60.80
46784;DHT22;32544;52.832;13.816;2022-08-26T02:53:38;27.00;60.80
46784;DHT22;32544;52.832;13.816;2022-08-26T02:54:39;26.90;61.50
46784;DHT22;32544;52.832;13.816;2022-08-26T02:55:39;27.00;60.90
46784;DHT22;32544;52.832;13.816;2022-08-26T02:56:41;26.90;60.80
46784;DHT22;32544;52.832;13.816;2022-08-26T02:57:41;27.00;60.90
46784;DHT22;32544;52.832;13.816;2022-08-26T02:58:42;27.00;60.90
46784;DHT22;32544;52.832;13.816;2022-08-26T02:59:43;26.90;60.80
46784;DHT22;32544;52.832;13.816;2022-08-26T03:00:43;27.00;60.90
46784;DHT22;32544;52.832;13.816;2022-08-26T03:01:47;27.00;60.90
46784;DHT22;32544;52.832;13.816;2022-08-26T03:02:49;27.00;60.90
46784;DHT22;32544;52.832;13.816;2022-08-26T03:03:49;27.00;60.90
46784;DHT22;32544;52.832;13.816;2022-08-26T03:04:50;27.00;60.90
46784;DHT22;32544;52.832;13.816;2022-08-26T03:05:51;26.90;60.80
46784;DHT22;32544;52.832;13.816;2022-08-26T03:06:52;26.90;60.80
46784;DHT22;32544;52.832;13.816;2022-08-26T03:07:53;27.00;60.90
46784;DHT22;32544;52.832;13.816;2022-08-26T03:08:53;26.90;60.80
46784;DHT22;32544;52.832;13.816;2022-08-26T03:09:55;26.90;60.80
46784;DHT22;32544;52.832;13.816;2022-08-26T03:10:56;26.90;60.70
46784;DHT22;32544;52.832;13.816;2022-08-26T03:11:57;27.00;60.80
46784;DHT22;32544;52.832;13.816;2022-08-26T03:12:57;26.90;60.60
46784;DHT22;32544;52.832;13.816;2022-08-26T03:13:59;26.90;60.60
46784;DHT22;32544;52.832;13.816;2022-08-26T03:14:59;26.90;60.60
46784;DHT22;32544;52.832;13.816;2022-08-26T03:16:00;26.90;60.60
46784;DHT22;32544;52.832;13.816;2022-08-26T03:17:01;26.90;60.60
46784;DHT22;32544;52.832;13.816;2022-08-26T03:18:02;26.90;60.60
46784;DHT22;32544;52.832;13.816;2022-08-26T03:19:03;26.90;60.60
46784;DHT22;32544;52.832;13.816;2022-08-26T03:20:04;26.90;60.60
46784;DHT22;32544;52.832;13.816;2022-08-26T03:21:09;26.90;60.60
46784;DHT22;32544;52.832;13.816;2022-08-26T03:22:10;26.90;60.70
46784;DHT22;32544;52.832;13.816;2022-08-26T03:23:11;26.90;60.70
46784;DHT22;32544;52.832;13.816;2022-08-26T03:24:12;26.90;60.70
46784;DHT22;32544;52.832;13.816;2022-08-26T03:25:13;26.90;60.60
46784;DHT22;32544;52.832;13.816;2022-08-26T03:26:14;26.90;60.70
46784;DHT22;32544;52.832;13.816;2022-08-26T03:27:15;26.90;60.70
46784;DHT22;32544;52.832;13.816;2022-08-26T03:28:16;26.90;60.70
46784;DHT22;32544;52.832;13.816;2022-08-26T03:29:17;26.90;60.60
46784;DHT22;32544;52.832;13.816;2022-08-26T03:30:36;26.90;60.60
46784;DHT22;32544;52.832;13.816;2022-08-26T03:31:39;26.90;60.70
46784;DHT22;32544;52.832;13.816;2022-08-26T03:32:39;26.90;60.70
46784;DHT22;32544;52.832;13.816;2022-08-26T03:33:40;26.80;60.70
46784;DHT22;32544;52.832;13.816;2022-08-26T03:34:41;26.80;60.70
46784;DHT22;32544;52.832;13.816;2022-08-26T03:35:42;26.90;60.80
46784;DHT22;32544;52.832;13.816;2022-08-26T03:36:43;26.80;60.80
46784;DHT22;32544;52.832;13.816;2022-08-26T03:37:44;26.90;60.90
46784;DHT22;32544;52.832;13.816;2022-08-26T03:38:45;26.90;60.90
46784;DHT22;32544;52.832;13.816;2022-08-26T03:39:46;26.80;60.90
46784;DHT22;32544;52.832;13.816;2022-08-26T03:40:46;26.90;60.80
46784;DHT22;32544;52.832;13.816;2022-08-26T03:41:47;26.90;60.90
46784;DHT22;32544;52.832;13.816;2022-08-26T03:42:48;26.90;60.80
46784;DHT22;32544;52.832;13.816;2022-08-26T03:43:48;26.90;60.80
46784;DHT22;32544;52.832;13.816;2022-08-26T03:44:50;26.90;60.80
46784;DHT22;32544;52.832;13.816;2022-08-26T03:45:50;26.90;60.80
46784;DHT22;32544;52.832;13.816;2022-08-26T03:46:51;26.90;60.70
46784;DHT22;32544;52.832;13.816;2022-08-26T03:47:53;26.90;60.70
46784;DHT22;32544;52.832;13.816;2022-08-26T03:48:53;26.90;60.70
46784;DHT22;32544;52.832;13.816;2022-08-26T03:49:55;26.90;60.70
46784;DHT22;32544;52.832;13.816;2022-08-26T03:50:56;26.90;60.70
46784;DHT22;32544;52.832;13.816;2022-08-26T03:51:56;26.90;60.70
46784;DHT22;32544;52.832;13.816;2022-08-26T03:52:57;26.90;60.80
46784;DHT22;32544;52.832;13.816;2022-08-26T03:53:58;26.90;60.80
46784;DHT22;32544;52.832;13.816;2022-08-26T03:55:00;26.90;60.80
46784;DHT22;32544;52.832;13.816;2022-08-26T03:56:00;26.90;60.80
46784;DHT22;32544;52.832;13.816;2022-08-26T03:57:01;26.90;60.90
46784;DHT22;32544;52.832;13.816;2022-08-26T03:58:02;26.90;60.80
46784;DHT22;32544;52.832;13.816;2022-08-26T03:59:03;26.90;60.90
46784;DHT22;32544;52.832;13.816;2022-08-26T04:00:05;26.90;60.90
46784;DHT22;32544;52.832;13.816;2022-08-26T04:01:12;26.90;60.90
46784;DHT22;32544;52.832;13.816;2022-08-26T04:02:14;26.90;60.90
46784;DHT22;32544;52.832;13.816;2022-08-26T04:03:14;26.90;60.90
46784;DHT22;32544;52.832;13.816;2022-08-26T04:04:35;26.90;60.80
46784;DHT22;32544;52.832;13.816;2022-08-26T04:05:36;26.90;60.80
46784;DHT22;32544;52.832;13.816;2022-08-26T04:06:38;26.90;60.80
46784;DHT22;32544;52.832;13.816;2022-08-26T04:07:39;26.90;60.70
46784;DHT22;32544;52.832;13.816;2022-08-26T04:08:40;26.90;60.80
46784;DHT22;32544;52.832;13.816;2022-08-26T04:09:41;26.90;60.80
46784;DHT22;32544;52.832;13.816;2022-08-26T04:10:41;26.90;60.70
46784;DHT22;32544;52.832;13.816;2022-08-26T04:11:43;26.90;60.70
46784;DHT22;32544;52.832;13.816;2022-08-26T04:12:44;26.90;60.70
46784;DHT22;32544;52.832;13.816;2022-08-26T04:13:45;26.90;60.70
46784;DHT22;32544;52.832;13.816;2022-08-26T04:14:46;26.90;60.70
46784;DHT22;32544;52.832;13.816;2022-08-26T04:15:46;26.90;60.70
46784;DHT22;32544;52.832;13.816;2022-08-26T04:16:47;26.90;60.70
46784;DHT22;32544;52.832;13.816;2022-08-26T04:17:48;26.90;60.70
46784;DHT22;32544;52.832;13.816;2022-08-26T04:18:49;26.90;60.70
46784;DHT22;32544;52.832;13.816;2022-08-26T04:19:49;26.90;60.80
46784;DHT22;32544;52.832;13.816;2022-08-26T04:20:50;26.90;60.70
46784;DHT22;32544;52.832;13.816;2022-08-26T04:21:51;26.90;60.80
46784;DHT22;32544;52.832;13.816;2022-08-26T04:22:52;26.90;60.70
46784;DHT22;32544;52.832;13.816;2022-08-26T04:23:53;26.90;60.70
46784;DHT22;32544;52.832;13.816;2022-08-26T04:24:54;26.80;60.80
46784;DHT22;32544;52.832;13.816;2022-08-26T04:25:54;26.80;60.80
46784;DHT22;32544;52.832;13.816;2022-08-26T04:26:55;26.80;60.80
46784;DHT22;32544;52.832;13.816;2022-08-26T04:27:55;26.80;60.80
46784;DHT22;32544;52.832;13.816;2022-08-26T04:28:56;26.80;61.00
46784;DHT22;32544;52.832;13.816;2022-08-26T04:29:57;26.80;61.10
46784;DHT22;32544;52.832;13.816;2022-08-26T04:30:58;26.80;61.10
46784;DHT22;32544;52.832;13.816;2022-08-26T04:31:58;26.80;61.20
46784;DHT22;32544;52.832;13.816;2022-08-26T04:32:59;26.80;61.20
46784;DHT22;32544;52.832;13.816;2022-08-26T04:34:01;26.80;61.20
46784;DHT22;32544;52.832;13.816;2022-08-26T04:35:02;26.80;61.20
46784;DHT22;32544;52.832;13.816;2022-08-26T04:36:03;26.80;61.20
46784;DHT22;32544;52.832;13.816;2022-08-26T04:37:04;26.80;61.20
46784;DHT22;32544;52.832;13.816;2022-08-26T04:38:05;26.80;61.20
46784;DHT22;32544;52.832;13.816;2022-08-26T04:39:06;26.80;61.10
46784;DHT22;32544;52.832;13.816;2022-08-26T04:40:07;26.80;61.10
46784;DHT22;32544;52.832;13.816;2022-08-26T04:41:09;26.80;61.10
46784;DHT22;32544;52.832;13.816;2022-08-26T04:42:10;26.80;61.10
46784;DHT22;32544;52.832;13.816;2022-08-26T04:43:11;26.80;61.00
46784;DHT22;32544;52.832;13.816;2022-08-26T04:44:13;26.80;61.00
46784;DHT22;32544;52.832;13.816;2022-08-26T04:45:13;26.80;61.00
46784;DHT22;32544;52.832;13.816;2022-08-26T04:46:18;26.80;60.90
46784;DHT22;32544;52.832;13.816;2022-08-26T04:47:21;26.80;60.90
46784;DHT22;32544;52.832;13.816;2022-08-26T04:48:21;26.80;60.90
46784;DHT22;32544;52.832;13.816;2022-08-26T04:49:22;26.80;60.80
46784;DHT22;32544;52.832;13.816;2022-08-26T04:50:23;26.80;60.80
46784;DHT22;32544;52.832;13.816;2022-08-26T04:51:25;26.80;60.80
46784;DHT22;32544;52.832;13.816;2022-08-26T04:52:28;26.80;60.80
46784;DHT22;32544;52.832;13.816;2022-08-26T04:53:29;26.80;60.70
46784;DHT22;32544;52.832;13.816;2022-08-26T04:54:30;26.80;60.70
46784;DHT22;32544;52.832;13.816;2022-08-26T04:55:31;26.80;60.70
46784;DHT22;32544;52.832;13.816;2022-08-26T04:56:33;26.80;60.70
46784;DHT22;32544;52.832;13.816;2022-08-26T04:57:34;26.80;60.60
46784;DHT22;32544;52.832;13.816;2022-08-26T04:58:34;26.80;60.60
46784;DHT22;32544;52.832;13.816;2022-08-26T04:59:35;26.80;60.60
46784;DHT22;32544;52.832;13.816;2022-08-26T05:00:36;26.80;60.60
46784;DHT22;32544;52.832;13.816;2022-08-26T05:01:36;26.80;60.60
46784;DHT22;32544;52.832;13.816;2022-08-26T05:02:37;26.80;60.60
46784;DHT22;32544;52.832;13.816;2022-08-26T05:03:38;26.80;60.60
46784;DHT22;32544;52.832;13.816;2022-08-26T05:04:39;26.80;60.60
46784;DHT22;32544;52.832;13.816;2022-08-26T05:05:43;26.80;60.60
46784;DHT22;32544;52.832;13.816;2022-08-26T05:06:44;26.80;60.60
46784;DHT22;32544;52.832;13.816;2022-08-26T05:07:44;26.80;60.60
46784;DHT22;32544;52.832;13.816;2022-08-26T05:08:45;26.80;60.60
46784;DHT22;32544;52.832;13.816;2022-08-26T05:09:46;26.80;60.60
46784;DHT22;32544;52.832;13.816;2022-08-26T05:10:48;26.80;60.60
46784;DHT22;32544;52.832;13.816;2022-08-26T05:11:49;26.80;60.60
46784;DHT22;32544;52.832;13.816;2022-08-26T05:12:50;26.80;60.70
46784;DHT22;32544;52.832;13.816;2022-08-26T05:13:50;26.80;60.70
46784;DHT22;32544;52.832;13.816;2022-08-26T05:14:51;26.80;60.70
46784;DHT22;32544;52.832;13.816;2022-08-26T05:15:52;26.80;60.70
46784;DHT22;32544;52.832;13.816;2022-08-26T05:16:53;26.80;60.70
46784;DHT22;32544;52.832;13.816;2022-08-26T05:17:55;26.80;60.70
46784;DHT22;32544;52.832;13.816;2022-08-26T05:18:58;26.80;60.60
46784;DHT22;32544;52.832;13.816;2022-08-26T05:19:58;26.80;60.70
46784;DHT22;32544;52.832;13.816;2022-08-26T05:21:00;26.80;60.60
46784;DHT22;32544;52.832;13.816;2022-08-26T05:22:01;26.80;60.70
46784;DHT22;32544;52.832;13.816;2022-08-26T05:23:02;26.80;60.70
46784;DHT22;32544;52.832;13.816;2022-08-26T05:24:04;26.70;60.60
46784;DHT22;32544;52.832;13.816;2022-08-26T05:25:05;26.80;60.70
46784;DHT22;32544;52.832;13.816;2022-08-26T05:26:06;26.80;60.70
46784;DHT22;32544;52.832;13.816;2022-08-26T05:27:07;26.80;60.60
46784;DHT22;32544;52.832;13.816;2022-08-26T05:28:08;26.80;60.60
46784;DHT22;32544;52.832;13.816;2022-08-26T05:29:09;26.80;60.70
46784;DHT22;32544;52.832;13.816;2022-08-26T05:30:09;26.70;60.70
46784;DHT22;32544;52.832;13.816;2022-08-26T05:31:11;26.80;60.80
46784;DHT22;32544;52.832;13.816;2022-08-26T05:32:12;26.80;60.80
46784;DHT22;32544;52.832;13.816;2022-08-26T05:33:14;26.80;60.80
46784;DHT22;32544;52.832;13.816;2022-08-26T05:34:15;26.80;60.90
46784;DHT22;32544;52.832;13.816;2022-08-26T05:35:16;26.80;60.90
46784;DHT22;32544;52.832;13.816;2022-08-26T05:36:18;26.80;60.90
46784;DHT22;32544;52.832;13.816;2022-08-26T05:37:18;26.70;60.90
46784;DHT22;32544;52.832;13.816;2022-08-26T05:38:20;26.70;60.90
46784;DHT22;32544;52.832;13.816;2022-08-26T05:39:21;26.70;60.90
46784;DHT22;32544;52.832;13.816;2022-08-26T05:40:22;26.70;60.90
46784;DHT22;32544;52.832;13.816;2022-08-26T05:41:24;26.70;60.90
46784;DHT22;32544;52.832;13.816;2022-08-26T05:42:27;26.70;60.90
46784;DHT22;32544;52.832;13.816;2022-08-26T05:43:28;26.70;60.90
46784;DHT22;32544;52.832;13.816;2022-08-26T05:44:29;26.70;60.90
46784;DHT22;32544;52.832;13.816;2022-08-26T05:45:29;26.70;60.90
46784;DHT22;32544;52.832;13.816;2022-08-26T05:46:32;26.70;60.90
46784;DHT22;32544;52.832;13.816;2022-08-26T05:47:33;26.70;60.80
46784;DHT22;32544;52.832;13.816;2022-08-26T05:48:33;26.80;60.80
46784;DHT22;32544;52.832;13.816;2022-08-26T05:49:34;26.70;60.70
46784;DHT22;32544;52.832;13.816;2022-08-26T05:50:36;26.80;60.80
46784;DHT22;32544;52.832;13.816;2022-08-26T05:51:37;26.80;60.80
46784;DHT22;32544;52.832;13.816;2022-08-26T05:52:37;26.80;60.70
46784;DHT22;32544;52.832;13.816;2022-08-26T05:53:39;26.80;60.70
46784;DHT22;32544;52.832;13.816;2022-08-26T05:54:39;26.80;60.70
46784;DHT22;32544;52.832;13.816;2022-08-26T05:55:41;26.80;60.70
46784;DHT22;32544;52.832;13.816;2022-08-26T05:56:43;26.80;60.70
46784;DHT22;32544;52.832;13.816;2022-08-26T05:57:43;26.80;60.70
46784;DHT22;32544;52.832;13.816;2022-08-26T05:58:44;26.80;60.70
46784;DHT22;32544;52.832;13.816;2022-08-26T05:59:45;26.80;60.80
46784;DHT22;32544;52.832;13.816;2022-08-26T06:00:54;26.80;60.80
46784;DHT22;32544;52.832;13.816;2022-08-26T06:01:55;26.80;60.90
46784;DHT22;32544;52.832;13.816;2022-08-26T06:02:55;26.80;60.90
46784;DHT22;32544;52.832;13.816;2022-08-26T06:03:57;26.80;60.90
46784;DHT22;32544;52.832;13.816;2022-08-26T06:04:58;26.80;60.90
46784;DHT22;32544;52.832;13.816;2022-08-26T06:06:02;26.80;61.00
46784;DHT22;32544;52.832;13.816;2022-08-26T06:07:02;26.80;60.90
46784;DHT22;32544;52.832;13.816;2022-08-26T06:08:03;26.80;60.90
46784;DHT22;32544;52.832;13.816;2022-08-26T06:09:18;26.80;61.70
46784;DHT22;32544;52.832;13.816;2022-08-26T06:10:18;26.80;60.90
46784;DHT22;32544;52.832;13.816;2022-08-26T06:11:20;26.80;60.90
46784;DHT22;32544;52.832;13.816;2022-08-26T06:12:24;26.80;61.00
46784;DHT22;32544;52.832;13.816;2022-08-26T06:13:25;26.80;61.10
46784;DHT22;32544;52.832;13.816;2022-08-26T06:14:26;26.80;61.10
46784;DHT22;32544;52.832;13.816;2022-08-26T06:15:27;26.80;61.00
46784;DHT22;32544;52.832;13.816;2022-08-26T06:16:28;26.80;61.00
46784;DHT22;32544;52.832;13.816;2022-08-26T06:17:29;26.80;61.00
46784;DHT22;32544;52.832;13.816;2022-08-26T06:18:31;26.80;61.10
46784;DHT22;32544;52.832;13.816;2022-08-26T06:19:34;26.80;61.10
46784;DHT22;32544;52.832;13.816;2022-08-26T06:20:34;26.80;61.10
46784;DHT22;32544;52.832;13.816;2022-08-26T06:21:36;26.80;61.00
46784;DHT22;32544;52.832;13.816;2022-08-26T06:22:38;26.80;61.10
46784;DHT22;32544;52.832;13.816;2022-08-26T06:23:59;26.80;61.20
46784;DHT22;32544;52.832;13.816;2022-08-26T06:25:18;26.80;61.40
46784;DHT22;32544;52.832;13.816;2022-08-26T06:26:37;26.80;61.80
46784;DHT22;32544;52.832;13.816;2022-08-26T06:27:38;26.80;62.00